sensor_id;sensor_type;location;lat;lon;timestamp;P1;durP1;ratioP1;P2;durP2;ratioP2
26951;SDS011;14507;52.418;13.398;2024-02-21T00:01:45;28.42;;;6.25;;
26951;SDS011;14507;52.418;13.398;2024-02-21T00:04:11;26.80;;;6.72;;
26951;SDS011;14507;52.418;13.398;2024-02-21T00:06:36;27.75;;;5.70;;
26951;SDS011;14507;52.418;13.398;2024-02-21T00:09:02;29.67;;;6.85;;
26951;SDS011;14507;52.418;13.398;2024-02-21T00:11:28;25.58;;;5.95;;
26951;SDS011;14507;52.418;13.398;2024-02-21T00:13:53;20.17;;;5.30;;
26951;SDS011;14507;52.418;13.398;2024-02-21T00:16:19;31.85;;;7.00;;
26951;SDS011;14507;52.418;13.398;2024-02-21T00:18:47;24.55;;;6.05;;
26951;SDS011;14507;52.418;13.398;2024-02-21T00:21:13;26.63;;;5.93;;
26951;SDS011;14507;52.418;13.398;2024-02-21T00:23:43;20.77;;;5.22;;
26951;SDS011;14507;52.418;13.398;2024-02-21T00:26:11;21.25;;;5.35;;
26951;SDS011;14507;52.418;13.398;2024-02-21T00:28:38;24.73;;;5.32;;
26951;SDS011;14507;52.418;13.398;2024-02-21T00:31:04;26.77;;;6.05;;
26951;SDS011;14507;52.418;13.398;2024-02-21T00:33:30;16.40;;;4.78;;
26951;SDS011;14507;52.418;13.398;2024-02-21T00:35:55;26.20;;;5.97;;
26951;SDS011;14507;52.418;13.398;2024-02-21T00:38:21;17.70;;;5.60;;
26951;SDS011;14507;52.418;13.398;2024-02-21T00:40:46;19.98;;;5.75;;
26951;SDS011;14507;52.418;13.398;2024-02-21T00:43:12;31.10;;;6.05;;
26951;SDS011;14507;52.418;13.398;2024-02-21T00:45:38;24.63;;;5.78;;
26951;SDS011;14507;52.418;13.398;2024-02-21T00:48:04;21.20;;;5.88;;
26951;SDS011;14507;52.418;13.398;2024-02-21T00:50:30;21.05;;;6.00;;
26951;SDS011;14507;52.418;13.398;2024-02-21T00:52:55;22.92;;;6.15;;
26951;SDS011;14507;52.418;13.398;2024-02-21T00:55:21;20.10;;;5.05;;
26951;SDS011;14507;52.418;13.398;2024-02-21T00:57:47;27.92;;;5.57;;
26951;SDS011;14507;52.418;13.398;2024-02-21T01:00:13;24.27;;;5.82;;
26951;SDS011;14507;52.418;13.398;2024-02-21T01:02:39;22.02;;;5.35;;
26951;SDS011;14507;52.418;13.398;2024-02-21T01:05:04;28.35;;;5.88;;
26951;SDS011;14507;52.418;13.398;2024-02-21T01:07:30;30.55;;;6.38;;
26951;SDS011;14507;52.418;13.398;2024-02-21T01:09:56;22.38;;;5.75;;
26951;SDS011;14507;52.418;13.398;2024-02-21T01:12:21;21.88;;;5.47;;
26951;SDS011;14507;52.418;13.398;2024-02-21T01:14:47;26.83;;;5.72;;
26951;SDS011;14507;52.418;13.398;2024-02-21T01:17:14;35.38;;;6.38;;
26951;SDS011;14507;52.418;13.398;2024-02-21T01:19:40;27.67;;;5.70;;
26951;SDS011;14507;52.418;13.398;2024-02-21T01:22:06;22.95;;;6.30;;
26951;SDS011;14507;52.418;13.398;2024-02-21T01:24:32;23.70;;;5.50;;
26951;SDS011;14507;52.418;13.398;2024-02-21T01:26:57;23.67;;;5.53;;
26951;SDS011;14507;52.418;13.398;2024-02-21T01:29:23;29.20;;;5.60;;
26951;SDS011;14507;52.418;13.398;2024-02-21T01:31:48;29.42;;;5.93;;
26951;SDS011;14507;52.418;13.398;2024-02-21T01:34:14;26.33;;;5.75;;
26951;SDS011;14507;52.418;13.398;2024-02-21T01:36:40;21.90;;;5.15;;
26951;SDS011;14507;52.418;13.398;2024-02-21T01:39:07;27.35;;;5.60;;
26951;SDS011;14507;52.418;13.398;2024-02-21T01:41:32;24.70;;;5.55;;
26951;SDS011;14507;52.418;13.398;2024-02-21T01:43:58;21.10;;;4.93;;
26951;SDS011;14507;52.418;13.398;2024-02-21T01:46:24;23.98;;;5.45;;
26951;SDS011;14507;52.418;13.398;2024-02-21T01:48:56;25.17;;;6.25;;
26951;SDS011;14507;52.418;13.398;2024-02-21T01:51:22;25.02;;;5.47;;
26951;SDS011;14507;52.418;13.398;2024-02-21T01:53:49;18.92;;;5.35;;
26951;SDS011;14507;52.418;13.398;2024-02-21T01:56:16;25.45;;;5.03;;
26951;SDS011;14507;52.418;13.398;2024-02-21T01:58:42;19.85;;;4.95;;
26951;SDS011;14507;52.418;13.398;2024-02-21T02:01:09;25.98;;;5.45;;
26951;SDS011;14507;52.418;13.398;2024-02-21T02:03:35;22.05;;;4.90;;
26951;SDS011;14507;52.418;13.398;2024-02-21T02:06:01;24.52;;;5.35;;
26951;SDS011;14507;52.418;13.398;2024-02-21T02:08:30;26.15;;;5.72;;
26951;SDS011;14507;52.418;13.398;2024-02-21T02:10:57;18.88;;;5.10;;
26951;SDS011;14507;52.418;13.398;2024-02-21T02:13:23;22.65;;;5.05;;
26951;SDS011;14507;52.418;13.398;2024-02-21T02:15:49;24.20;;;5.55;;
26951;SDS011;14507;52.418;13.398;2024-02-21T02:18:16;28.88;;;5.25;;
26951;SDS011;14507;52.418;13.398;2024-02-21T02:20:43;25.63;;;6.63;;
26951;SDS011;14507;52.418;13.398;2024-02-21T02:23:11;26.20;;;5.10;;
26951;SDS011;14507;52.418;13.398;2024-02-21T02:25:39;23.55;;;5.50;;
26951;SDS011;14507;52.418;13.398;2024-02-21T02:28:08;23.48;;;4.97;;
26951;SDS011;14507;52.418;13.398;2024-02-21T02:30:34;26.85;;;5.75;;
26951;SDS011;14507;52.418;13.398;2024-02-21T02:33:04;17.83;;;4.95;;
26951;SDS011;14507;52.418;13.398;2024-02-21T02:35:30;21.33;;;4.93;;
26951;SDS011;14507;52.418;13.398;2024-02-21T02:37:56;24.42;;;6.10;;
26951;SDS011;14507;52.418;13.398;2024-02-21T02:40:22;22.75;;;4.43;;
26951;SDS011;14507;52.418;13.398;2024-02-21T02:42:48;25.02;;;6.82;;
26951;SDS011;14507;52.418;13.398;2024-02-21T02:45:17;22.98;;;5.65;;
26951;SDS011;14507;52.418;13.398;2024-02-21T02:47:46;26.25;;;6.00;;
26951;SDS011;14507;52.418;13.398;2024-02-21T02:50:12;22.08;;;6.13;;
26951;SDS011;14507;52.418;13.398;2024-02-21T02:52:38;24.15;;;5.55;;
26951;SDS011;14507;52.418;13.398;2024-02-21T02:55:04;21.98;;;5.10;;
26951;SDS011;14507;52.418;13.398;2024-02-21T02:57:30;20.27;;;4.88;;
26951;SDS011;14507;52.418;13.398;2024-02-21T02:59:56;26.33;;;6.15;;
26951;SDS011;14507;52.418;13.398;2024-02-21T03:02:22;22.02;;;5.63;;
26951;SDS011;14507;52.418;13.398;2024-02-21T03:04:48;24.40;;;5.50;;
26951;SDS011;14507;52.418;13.398;2024-02-21T03:07:14;23.85;;;5.47;;
26951;SDS011;14507;52.418;13.398;2024-02-21T03:09:40;22.08;;;5.75;;
26951;SDS011;14507;52.418;13.398;2024-02-21T03:12:07;27.40;;;6.50;;
26951;SDS011;14507;52.418;13.398;2024-02-21T03:14:33;24.17;;;5.95;;
26951;SDS011;14507;52.418;13.398;2024-02-21T03:17:00;26.17;;;6.75;;
26951;SDS011;14507;52.418;13.398;2024-02-21T03:19:27;20.50;;;6.18;;
26951;SDS011;14507;52.418;13.398;2024-02-21T03:21:53;26.63;;;6.60;;
26951;SDS011;14507;52.418;13.398;2024-02-21T03:24:18;25.50;;;6.22;;
26951;SDS011;14507;52.418;13.398;2024-02-21T03:26:44;28.42;;;7.22;;
26951;SDS011;14507;52.418;13.398;2024-02-21T03:29:12;26.45;;;6.72;;
26951;SDS011;14507;52.418;13.398;2024-02-21T03:31:39;23.13;;;6.30;;
26951;SDS011;14507;52.418;13.398;2024-02-21T03:34:04;21.13;;;5.78;;
26951;SDS011;14507;52.418;13.398;2024-02-21T03:36:30;27.58;;;6.53;;
26951;SDS011;14507;52.418;13.398;2024-02-21T03:38:56;25.15;;;5.85;;
26951;SDS011;14507;52.418;13.398;2024-02-21T03:41:21;28.33;;;7.57;;
26951;SDS011;14507;52.418;13.398;2024-02-21T03:43:47;32.30;;;6.55;;
26951;SDS011;14507;52.418;13.398;2024-02-21T03:46:13;18.92;;;6.32;;
26951;SDS011;14507;52.418;13.398;2024-02-21T03:48:39;20.35;;;6.30;;
26951;SDS011;14507;52.418;13.398;2024-02-21T03:51:04;25.67;;;6.53;;
26951;SDS011;14507;52.418;13.398;2024-02-21T03:53:30;19.70;;;6.28;;
26951;SDS011;14507;52.418;13.398;2024-02-21T03:55:56;31.23;;;6.82;;
26951;SDS011;14507;52.418;13.398;2024-02-21T03:58:24;27.02;;;6.63;;
26951;SDS011;14507;52.418;13.398;2024-02-21T04:00:50;26.38;;;6.97;;
26951;SDS011;14507;52.418;13.398;2024-02-21T04:03:16;24.92;;;6.78;;
26951;SDS011;14507;52.418;13.398;2024-02-21T04:05:42;28.63;;;7.15;;
26951;SDS011;14507;52.418;13.398;2024-02-21T04:08:08;33.75;;;7.93;;
26951;SDS011;14507;52.418;13.398;2024-02-21T04:10:34;28.90;;;7.40;;
26951;SDS011;14507;52.418;13.398;2024-02-21T04:12:59;25.23;;;7.68;;
26951;SDS011;14507;52.418;13.398;2024-02-21T04:15:25;26.15;;;7.40;;
26951;SDS011;14507;52.418;13.398;2024-02-21T04:17:50;34.53;;;7.93;;
26951;SDS011;14507;52.418;13.398;2024-02-21T04:20:17;28.63;;;7.57;;
26951;SDS011;14507;52.418;13.398;2024-02-21T04:22:43;25.83;;;7.18;;
26951;SDS011;14507;52.418;13.398;2024-02-21T04:25:09;23.00;;;6.50;;
26951;SDS011;14507;52.418;13.398;2024-02-21T04:27:36;19.42;;;6.95;;
26951;SDS011;14507;52.418;13.398;2024-02-21T04:30:02;18.85;;;6.43;;
26951;SDS011;14507;52.418;13.398;2024-02-21T04:32:28;24.60;;;7.38;;
26951;SDS011;14507;52.418;13.398;2024-02-21T04:34:54;25.95;;;6.80;;
26951;SDS011;14507;52.418;13.398;2024-02-21T04:37:20;22.13;;;6.95;;
26951;SDS011;14507;52.418;13.398;2024-02-21T04:39:45;27.63;;;8.02;;
26951;SDS011;14507;52.418;13.398;2024-02-21T04:42:11;23.33;;;6.55;;
26951;SDS011;14507;52.418;13.398;2024-02-21T04:44:37;26.50;;;7.20;;
26951;SDS011;14507;52.418;13.398;2024-02-21T04:47:03;25.23;;;7.75;;
26951;SDS011;14507;52.418;13.398;2024-02-21T04:49:29;20.13;;;6.57;;
26951;SDS011;14507;52.418;13.398;2024-02-21T04:51:55;25.38;;;7.05;;
26951;SDS011;14507;52.418;13.398;2024-02-21T04:54:20;28.75;;;8.52;;
26951;SDS011;14507;52.418;13.398;2024-02-21T04:56:46;25.88;;;7.28;;
26951;SDS011;14507;52.418;13.398;2024-02-21T04:59:11;35.40;;;7.68;;
26951;SDS011;14507;52.418;13.398;2024-02-21T05:01:37;28.27;;;7.28;;
26951;SDS011;14507;52.418;13.398;2024-02-21T05:04:03;25.35;;;7.70;;
26951;SDS011;14507;52.418;13.398;2024-02-21T05:06:29;27.92;;;7.68;;
26951;SDS011;14507;52.418;13.398;2024-02-21T05:08:54;23.58;;;7.78;;
26951;SDS011;14507;52.418;13.398;2024-02-21T05:11:23;28.17;;;7.47;;
26951;SDS011;14507;52.418;13.398;2024-02-21T05:13:50;29.90;;;7.38;;
26951;SDS011;14507;52.418;13.398;2024-02-21T05:16:15;29.23;;;7.95;;
26951;SDS011;14507;52.418;13.398;2024-02-21T05:18:41;28.63;;;7.97;;
26951;SDS011;14507;52.418;13.398;2024-02-21T05:21:08;29.92;;;7.90;;
26951;SDS011;14507;52.418;13.398;2024-02-21T05:23:34;28.38;;;8.32;;
26951;SDS011;14507;52.418;13.398;2024-02-21T05:25:59;22.08;;;7.40;;
26951;SDS011;14507;52.418;13.398;2024-02-21T05:28:25;24.83;;;8.18;;
26951;SDS011;14507;52.418;13.398;2024-02-21T05:30:50;28.45;;;8.35;;
26951;SDS011;14507;52.418;13.398;2024-02-21T05:33:16;26.92;;;7.70;;
26951;SDS011;14507;52.418;13.398;2024-02-21T05:35:46;23.75;;;7.28;;
26951;SDS011;14507;52.418;13.398;2024-02-21T05:38:15;28.33;;;8.05;;
26951;SDS011;14507;52.418;13.398;2024-02-21T05:40:41;22.85;;;7.75;;
26951;SDS011;14507;52.418;13.398;2024-02-21T05:43:07;24.45;;;7.38;;
26951;SDS011;14507;52.418;13.398;2024-02-21T05:45:34;30.50;;;8.05;;
26951;SDS011;14507;52.418;13.398;2024-02-21T05:47:59;22.42;;;7.88;;
26951;SDS011;14507;52.418;13.398;2024-02-21T05:50:25;24.17;;;8.07;;
26951;SDS011;14507;52.418;13.398;2024-02-21T05:52:52;25.75;;;7.43;;
26951;SDS011;14507;52.418;13.398;2024-02-21T05:55:19;22.53;;;7.20;;
26951;SDS011;14507;52.418;13.398;2024-02-21T05:57:44;33.15;;;8.60;;
26951;SDS011;14507;52.418;13.398;2024-02-21T06:00:10;24.52;;;8.40;;
26951;SDS011;14507;52.418;13.398;2024-02-21T06:02:36;28.67;;;8.18;;
26951;SDS011;14507;52.418;13.398;2024-02-21T06:05:02;27.40;;;8.13;;
26951;SDS011;14507;52.418;13.398;2024-02-21T06:07:27;31.17;;;8.45;;
26951;SDS011;14507;52.418;13.398;2024-02-21T06:09:53;25.27;;;8.05;;
26951;SDS011;14507;52.418;13.398;2024-02-21T06:12:19;31.27;;;8.38;;
26951;SDS011;14507;52.418;13.398;2024-02-21T06:14:44;23.17;;;8.15;;
26951;SDS011;14507;52.418;13.398;2024-02-21T06:17:10;26.48;;;8.38;;
26951;SDS011;14507;52.418;13.398;2024-02-21T06:19:39;27.95;;;8.23;;
26951;SDS011;14507;52.418;13.398;2024-02-21T06:22:06;25.73;;;9.00;;
26951;SDS011;14507;52.418;13.398;2024-02-21T06:24:33;24.25;;;7.45;;
26951;SDS011;14507;52.418;13.398;2024-02-21T06:26:59;29.63;;;8.85;;
26951;SDS011;14507;52.418;13.398;2024-02-21T06:29:25;25.98;;;8.63;;
26951;SDS011;14507;52.418;13.398;2024-02-21T06:31:50;25.55;;;8.05;;
26951;SDS011;14507;52.418;13.398;2024-02-21T06:34:16;24.52;;;8.18;;
26951;SDS011;14507;52.418;13.398;2024-02-21T06:36:42;20.80;;;7.75;;
26951;SDS011;14507;52.418;13.398;2024-02-21T06:39:07;25.02;;;7.93;;
26951;SDS011;14507;52.418;13.398;2024-02-21T06:41:33;24.50;;;7.00;;
26951;SDS011;14507;52.418;13.398;2024-02-21T06:43:59;29.45;;;8.38;;
26951;SDS011;14507;52.418;13.398;2024-02-21T06:46:25;26.75;;;7.70;;
26951;SDS011;14507;52.418;13.398;2024-02-21T06:48:52;28.02;;;8.68;;
26951;SDS011;14507;52.418;13.398;2024-02-21T06:51:17;21.55;;;7.95;;
26951;SDS011;14507;52.418;13.398;2024-02-21T06:53:43;19.92;;;7.90;;
26951;SDS011;14507;52.418;13.398;2024-02-21T06:56:09;24.38;;;8.18;;
26951;SDS011;14507;52.418;13.398;2024-02-21T06:58:35;22.63;;;8.02;;
26951;SDS011;14507;52.418;13.398;2024-02-21T07:01:01;22.40;;;8.38;;
26951;SDS011;14507;52.418;13.398;2024-02-21T07:03:27;24.75;;;7.68;;
26951;SDS011;14507;52.418;13.398;2024-02-21T07:05:52;23.38;;;7.70;;
26951;SDS011;14507;52.418;13.398;2024-02-21T07:08:18;29.20;;;8.48;;
26951;SDS011;14507;52.418;13.398;2024-02-21T07:10:43;25.42;;;7.80;;
26951;SDS011;14507;52.418;13.398;2024-02-21T07:13:09;27.45;;;8.13;;
26951;SDS011;14507;52.418;13.398;2024-02-21T07:15:35;25.35;;;8.07;;
26951;SDS011;14507;52.418;13.398;2024-02-21T07:18:01;27.55;;;8.52;;
26951;SDS011;14507;52.418;13.398;2024-02-21T07:20:27;25.83;;;8.10;;
26951;SDS011;14507;52.418;13.398;2024-02-21T07:22:53;26.23;;;7.47;;
26951;SDS011;14507;52.418;13.398;2024-02-21T07:25:19;30.85;;;7.60;;
26951;SDS011;14507;52.418;13.398;2024-02-21T07:27:45;26.10;;;7.45;;
26951;SDS011;14507;52.418;13.398;2024-02-21T07:30:10;28.88;;;7.35;;
26951;SDS011;14507;52.418;13.398;2024-02-21T07:32:36;23.02;;;7.20;;
26951;SDS011;14507;52.418;13.398;2024-02-21T07:35:02;26.92;;;8.45;;
26951;SDS011;14507;52.418;13.398;2024-02-21T07:37:27;25.67;;;8.02;;
26951;SDS011;14507;52.418;13.398;2024-02-21T07:39:56;22.08;;;7.47;;
26951;SDS011;14507;52.418;13.398;2024-02-21T07:42:21;20.58;;;7.10;;
26951;SDS011;14507;52.418;13.398;2024-02-21T07:44:47;23.00;;;6.97;;
26951;SDS011;14507;52.418;13.398;2024-02-21T07:47:12;21.58;;;6.57;;
26951;SDS011;14507;52.418;13.398;2024-02-21T07:49:43;21.55;;;7.30;;
26951;SDS011;14507;52.418;13.398;2024-02-21T07:52:10;29.20;;;7.93;;
26951;SDS011;14507;52.418;13.398;2024-02-21T07:54:35;27.48;;;7.43;;
26951;SDS011;14507;52.418;13.398;2024-02-21T07:57:01;26.52;;;7.38;;
26951;SDS011;14507;52.418;13.398;2024-02-21T07:59:27;22.75;;;7.40;;
26951;SDS011;14507;52.418;13.398;2024-02-21T08:01:57;18.38;;;7.25;;
26951;SDS011;14507;52.418;13.398;2024-02-21T08:04:23;24.15;;;7.50;;
26951;SDS011;14507;52.418;13.398;2024-02-21T08:06:52;27.15;;;7.68;;
26951;SDS011;14507;52.418;13.398;2024-02-21T08:09:19;20.88;;;7.68;;
26951;SDS011;14507;52.418;13.398;2024-02-21T08:11:44;22.42;;;7.70;;
26951;SDS011;14507;52.418;13.398;2024-02-21T08:14:10;27.17;;;8.15;;
26951;SDS011;14507;52.418;13.398;2024-02-21T08:16:36;19.88;;;8.10;;
26951;SDS011;14507;52.418;13.398;2024-02-21T08:19:01;30.85;;;8.25;;
26951;SDS011;14507;52.418;13.398;2024-02-21T08:21:29;25.83;;;8.30;;
26951;SDS011;14507;52.418;13.398;2024-02-21T08:23:54;21.80;;;7.63;;
26951;SDS011;14507;52.418;13.398;2024-02-21T08:26:20;23.52;;;8.07;;
26951;SDS011;14507;52.418;13.398;2024-02-21T08:28:46;28.80;;;8.38;;
26951;SDS011;14507;52.418;13.398;2024-02-21T08:31:17;24.92;;;8.55;;
26951;SDS011;14507;52.418;13.398;2024-02-21T08:33:48;31.27;;;9.18;;
26951;SDS011;14507;52.418;13.398;2024-02-21T08:36:17;23.40;;;8.32;;
26951;SDS011;14507;52.418;13.398;2024-02-21T08:38:44;26.98;;;9.10;;
26951;SDS011;14507;52.418;13.398;2024-02-21T08:41:10;26.50;;;8.45;;
26951;SDS011;14507;52.418;13.398;2024-02-21T08:43:36;26.08;;;8.40;;
26951;SDS011;14507;52.418;13.398;2024-02-21T08:46:01;27.35;;;8.45;;
26951;SDS011;14507;52.418;13.398;2024-02-21T08:48:27;25.15;;;8.50;;
26951;SDS011;14507;52.418;13.398;2024-02-21T08:50:53;24.73;;;9.05;;
26951;SDS011;14507;52.418;13.398;2024-02-21T08:53:19;39.10;;;9.55;;
26951;SDS011;14507;52.418;13.398;2024-02-21T08:55:45;28.08;;;8.98;;
26951;SDS011;14507;52.418;13.398;2024-02-21T08:58:11;29.70;;;9.80;;
26951;SDS011;14507;52.418;13.398;2024-02-21T09:00:37;32.17;;;10.38;;
26951;SDS011;14507;52.418;13.398;2024-02-21T09:03:02;31.80;;;8.70;;
26951;SDS011;14507;52.418;13.398;2024-02-21T09:05:28;27.95;;;9.07;;
26951;SDS011;14507;52.418;13.398;2024-02-21T09:07:54;24.70;;;9.18;;
26951;SDS011;14507;52.418;13.398;2024-02-21T09:10:20;29.38;;;8.68;;
26951;SDS011;14507;52.418;13.398;2024-02-21T09:12:46;30.27;;;9.93;;
26951;SDS011;14507;52.418;13.398;2024-02-21T09:15:12;25.70;;;10.25;;
26951;SDS011;14507;52.418;13.398;2024-02-21T09:17:38;21.40;;;8.65;;
26951;SDS011;14507;52.418;13.398;2024-02-21T09:20:04;29.27;;;9.60;;
26951;SDS011;14507;52.418;13.398;2024-02-21T09:22:31;26.45;;;9.52;;
26951;SDS011;14507;52.418;13.398;2024-02-21T09:27:25;22.67;;;9.15;;
26951;SDS011;14507;52.418;13.398;2024-02-21T09:29:51;30.15;;;9.80;;
26951;SDS011;14507;52.418;13.398;2024-02-21T09:32:18;27.35;;;10.20;;
26951;SDS011;14507;52.418;13.398;2024-02-21T09:34:44;24.37;;;9.10;;
26951;SDS011;14507;52.418;13.398;2024-02-21T09:37:10;26.58;;;9.32;;
26951;SDS011;14507;52.418;13.398;2024-02-21T09:39:36;30.45;;;9.32;;
26951;SDS011;14507;52.418;13.398;2024-02-21T09:42:05;24.75;;;9.00;;
26951;SDS011;14507;52.418;13.398;2024-02-21T09:44:38;22.15;;;9.77;;
26951;SDS011;14507;52.418;13.398;2024-02-21T09:47:09;27.52;;;9.13;;
26951;SDS011;14507;52.418;13.398;2024-02-21T09:49:38;28.92;;;10.35;;
26951;SDS011;14507;52.418;13.398;2024-02-21T09:52:07;23.67;;;9.57;;
26951;SDS011;14507;52.418;13.398;2024-02-21T09:54:34;24.50;;;9.45;;
26951;SDS011;14507;52.418;13.398;2024-02-21T09:57:00;25.55;;;9.50;;
26951;SDS011;14507;52.418;13.398;2024-02-21T09:59:32;29.17;;;9.60;;
26951;SDS011;14507;52.418;13.398;2024-02-21T10:01:57;28.48;;;10.32;;
26951;SDS011;14507;52.418;13.398;2024-02-21T10:04:26;28.35;;;9.77;;
26951;SDS011;14507;52.418;13.398;2024-02-21T10:06:55;27.73;;;10.98;;
26951;SDS011;14507;52.418;13.398;2024-02-21T10:09:25;26.90;;;8.90;;
26951;SDS011;14507;52.418;13.398;2024-02-21T10:11:53;18.48;;;8.63;;
26951;SDS011;14507;52.418;13.398;2024-02-21T10:14:32;34.15;;;10.40;;
26951;SDS011;14507;52.418;13.398;2024-02-21T10:16:57;24.00;;;9.75;;
26951;SDS011;14507;52.418;13.398;2024-02-21T10:19:26;30.13;;;9.60;;
26951;SDS011;14507;52.418;13.398;2024-02-21T10:22:02;27.27;;;10.30;;
26951;SDS011;14507;52.418;13.398;2024-02-21T10:24:29;26.10;;;9.32;;
26951;SDS011;14507;52.418;13.398;2024-02-21T10:27:02;19.67;;;9.18;;
26951;SDS011;14507;52.418;13.398;2024-02-21T10:29:31;25.13;;;9.30;;
26951;SDS011;14507;52.418;13.398;2024-02-21T10:32:13;20.05;;;8.73;;
26951;SDS011;14507;52.418;13.398;2024-02-21T10:34:40;23.10;;;8.93;;
26951;SDS011;14507;52.418;13.398;2024-02-21T10:37:07;18.47;;;8.87;;
26951;SDS011;14507;52.418;13.398;2024-02-21T10:39:34;18.88;;;8.38;;
26951;SDS011;14507;52.418;13.398;2024-02-21T10:42:04;25.73;;;8.82;;
26951;SDS011;14507;52.418;13.398;2024-02-21T10:44:31;24.33;;;9.40;;
26951;SDS011;14507;52.418;13.398;2024-02-21T10:46:59;21.48;;;8.82;;
26951;SDS011;14507;52.418;13.398;2024-02-21T10:49:28;19.63;;;8.25;;
26951;SDS011;14507;52.418;13.398;2024-02-21T10:52:01;19.83;;;7.80;;
26951;SDS011;14507;52.418;13.398;2024-02-21T10:54:58;22.10;;;8.77;;
26951;SDS011;14507;52.418;13.398;2024-02-21T10:57:28;26.33;;;8.70;;
26951;SDS011;14507;52.418;13.398;2024-02-21T10:59:56;30.63;;;8.65;;
26951;SDS011;14507;52.418;13.398;2024-02-21T11:02:24;21.15;;;8.25;;
26951;SDS011;14507;52.418;13.398;2024-02-21T11:04:53;23.52;;;7.68;;
26951;SDS011;14507;52.418;13.398;2024-02-21T11:07:20;18.00;;;7.95;;
26951;SDS011;14507;52.418;13.398;2024-02-21T11:09:52;19.75;;;7.63;;
26951;SDS011;14507;52.418;13.398;2024-02-21T11:12:19;19.95;;;7.82;;
26951;SDS011;14507;52.418;13.398;2024-02-21T11:14:46;17.95;;;7.22;;
26951;SDS011;14507;52.418;13.398;2024-02-21T11:17:19;17.08;;;8.20;;
26951;SDS011;14507;52.418;13.398;2024-02-21T11:19:51;19.67;;;8.57;;
26951;SDS011;14507;52.418;13.398;2024-02-21T11:22:17;20.58;;;8.18;;
26951;SDS011;14507;52.418;13.398;2024-02-21T11:24:45;18.70;;;7.70;;
26951;SDS011;14507;52.418;13.398;2024-02-21T11:27:14;15.15;;;6.93;;
26951;SDS011;14507;52.418;13.398;2024-02-21T11:29:48;15.43;;;7.40;;
26951;SDS011;14507;52.418;13.398;2024-02-21T11:32:17;20.88;;;8.00;;
26951;SDS011;14507;52.418;13.398;2024-02-21T11:34:55;21.50;;;7.32;;
26951;SDS011;14507;52.418;13.398;2024-02-21T11:37:26;17.48;;;7.72;;
26951;SDS011;14507;52.418;13.398;2024-02-21T11:39:53;13.70;;;6.60;;
26951;SDS011;14507;52.418;13.398;2024-02-21T11:42:22;16.45;;;7.07;;
26951;SDS011;14507;52.418;13.398;2024-02-21T11:44:50;14.85;;;7.03;;
26951;SDS011;14507;52.418;13.398;2024-02-21T11:47:16;17.70;;;7.38;;
26951;SDS011;14507;52.418;13.398;2024-02-21T11:49:45;12.43;;;6.22;;
26951;SDS011;14507;52.418;13.398;2024-02-21T11:52:15;13.98;;;4.82;;
26951;SDS011;14507;52.418;13.398;2024-02-21T11:54:41;13.93;;;6.00;;
26951;SDS011;14507;52.418;13.398;2024-02-21T11:57:07;11.50;;;5.28;;
26951;SDS011;14507;52.418;13.398;2024-02-21T11:59:34;18.38;;;6.10;;
26951;SDS011;14507;52.418;13.398;2024-02-21T12:02:00;17.58;;;5.90;;
26951;SDS011;14507;52.418;13.398;2024-02-21T12:04:28;17.38;;;5.63;;
26951;SDS011;14507;52.418;13.398;2024-02-21T12:06:56;12.63;;;5.30;;
26951;SDS011;14507;52.418;13.398;2024-02-21T12:09:23;11.10;;;5.20;;
26951;SDS011;14507;52.418;13.398;2024-02-21T12:11:59;12.40;;;5.25;;
26951;SDS011;14507;52.418;13.398;2024-02-21T12:14:30;10.40;;;5.00;;
26951;SDS011;14507;52.418;13.398;2024-02-21T12:16:56;13.95;;;5.10;;
26951;SDS011;14507;52.418;13.398;2024-02-21T12:19:24;12.05;;;4.07;;
26951;SDS011;14507;52.418;13.398;2024-02-21T12:21:49;13.05;;;4.70;;
26951;SDS011;14507;52.418;13.398;2024-02-21T12:24:17;14.20;;;4.68;;
26951;SDS011;14507;52.418;13.398;2024-02-21T12:26:50;12.25;;;4.05;;
26951;SDS011;14507;52.418;13.398;2024-02-21T12:29:17;11.53;;;4.27;;
26951;SDS011;14507;52.418;13.398;2024-02-21T12:31:43;11.00;;;4.10;;
26951;SDS011;14507;52.418;13.398;2024-02-21T12:34:10;14.02;;;4.50;;
26951;SDS011;14507;52.418;13.398;2024-02-21T12:36:36;11.38;;;4.28;;
26951;SDS011;14507;52.418;13.398;2024-02-21T12:39:08;15.05;;;3.90;;
26951;SDS011;14507;52.418;13.398;2024-02-21T12:41:35;10.45;;;4.22;;
26951;SDS011;14507;52.418;13.398;2024-02-21T12:44:03;13.80;;;4.35;;
26951;SDS011;14507;52.418;13.398;2024-02-21T12:46:31;15.45;;;5.32;;
26951;SDS011;14507;52.418;13.398;2024-02-21T12:48:58;13.23;;;5.40;;
26951;SDS011;14507;52.418;13.398;2024-02-21T12:51:23;14.85;;;5.38;;
26951;SDS011;14507;52.418;13.398;2024-02-21T12:53:49;13.38;;;5.40;;
26951;SDS011;14507;52.418;13.398;2024-02-21T12:56:15;14.35;;;5.35;;
26951;SDS011;14507;52.418;13.398;2024-02-21T12:58:41;17.63;;;4.88;;
26951;SDS011;14507;52.418;13.398;2024-02-21T13:01:07;12.52;;;4.85;;
26951;SDS011;14507;52.418;13.398;2024-02-21T13:03:33;16.67;;;5.65;;
26951;SDS011;14507;52.418;13.398;2024-02-21T13:05:58;12.88;;;4.68;;
26951;SDS011;14507;52.418;13.398;2024-02-21T13:08:24;11.68;;;4.45;;
26951;SDS011;14507;52.418;13.398;2024-02-21T13:10:50;9.57;;;4.47;;
26951;SDS011;14507;52.418;13.398;2024-02-21T13:13:16;19.58;;;5.07;;
26951;SDS011;14507;52.418;13.398;2024-02-21T13:15:42;13.60;;;4.82;;
26951;SDS011;14507;52.418;13.398;2024-02-21T13:18:08;13.23;;;4.72;;
26951;SDS011;14507;52.418;13.398;2024-02-21T13:20:34;14.52;;;5.18;;
26951;SDS011;14507;52.418;13.398;2024-02-21T13:23:00;12.80;;;4.97;;
26951;SDS011;14507;52.418;13.398;2024-02-21T13:25:26;12.23;;;5.32;;
26951;SDS011;14507;52.418;13.398;2024-02-21T13:27:51;12.30;;;4.93;;
26951;SDS011;14507;52.418;13.398;2024-02-21T13:30:17;15.40;;;5.28;;
26951;SDS011;14507;52.418;13.398;2024-02-21T13:32:43;14.45;;;6.13;;
26951;SDS011;14507;52.418;13.398;2024-02-21T13:37:37;14.60;;;5.35;;
26951;SDS011;14507;52.418;13.398;2024-02-21T13:40:04;11.02;;;4.90;;
26951;SDS011;14507;52.418;13.398;2024-02-21T13:42:30;13.18;;;5.50;;
26951;SDS011;14507;52.418;13.398;2024-02-21T13:44:56;15.68;;;5.05;;
26951;SDS011;14507;52.418;13.398;2024-02-21T13:47:22;16.50;;;5.47;;
26951;SDS011;14507;52.418;13.398;2024-02-21T13:49:47;16.63;;;5.03;;
26951;SDS011;14507;52.418;13.398;2024-02-21T13:52:13;15.90;;;4.90;;
26951;SDS011;14507;52.418;13.398;2024-02-21T13:54:39;14.40;;;4.50;;
26951;SDS011;14507;52.418;13.398;2024-02-21T13:57:05;14.48;;;4.38;;
26951;SDS011;14507;52.418;13.398;2024-02-21T13:59:31;14.60;;;4.70;;
26951;SDS011;14507;52.418;13.398;2024-02-21T14:01:58;13.38;;;5.25;;
26951;SDS011;14507;52.418;13.398;2024-02-21T14:04:24;16.08;;;4.38;;
26951;SDS011;14507;52.418;13.398;2024-02-21T14:06:49;15.65;;;4.72;;
26951;SDS011;14507;52.418;13.398;2024-02-21T14:09:15;13.73;;;4.05;;
26951;SDS011;14507;52.418;13.398;2024-02-21T14:11:41;11.43;;;4.20;;
26951;SDS011;14507;52.418;13.398;2024-02-21T14:14:07;13.70;;;4.28;;
26951;SDS011;14507;52.418;13.398;2024-02-21T14:16:33;10.77;;;4.40;;
26951;SDS011;14507;52.418;13.398;2024-02-21T14:18:59;11.70;;;4.57;;
26951;SDS011;14507;52.418;13.398;2024-02-21T14:21:24;15.30;;;4.45;;
26951;SDS011;14507;52.418;13.398;2024-02-21T14:23:50;15.52;;;5.45;;